x

East Dellwood (46207) Wave Buoy

9:00pm - Mon 21st Aug 2017 All times are PDT. -7 hours from GMT.

  • Sig Wave height 4.3ft
  • Peak Period 8s
  • Wind
    9mph, 11mph gusts
  • Sea Temp 60°f
  • Air Temp 66°f
  • Sea Pressure 1019mb
  • East Dellwood
  • East Dellwood

More Historic Weather Station data

Upgrade to MSW Pro to gain access to the past 30 days of data for over 8000 Wavebouys and Weather Stations around the globe.

Join

Comparision Forecast

View Surf forecast
   
Mon 08/21 9:00pm 4.5ft 8s 9 11 mph 1019mb 60f 66f
8:00pm 4.5ft 8s 11 13 mph 1019.1mb 60f 66f
7:00pm 4.5ft 8s 11 13 mph 1019.4mb 60f 66f
6:00pm 4.5ft 8s 9 11 mph 1020.1mb 60f 65f
5:00pm 5ft 8s 9 11 mph 1020.1mb 60f 66f
4:00pm 4.5ft 8s 11 13 mph 1020.5mb 60f 66f
3:00pm 5ft 8s 9 9 mph 1020.7mb 60f 66f
2:00pm 5ft 8s 9 11 mph 1020.7mb 60f 67f
1:00pm 5ft 8s 7 9 mph 1020.6mb 60f 66f
12:00pm 5ft 7s 9 9 mph 1020.3mb 59f 66f
11:00am 4.5ft 14s 9 11 mph 1020.1mb 59f 66f
10:00am 5ft 9s 9 11 mph 1020.2mb 59f 66f
9:00am 4.5ft 8s 9 11 mph 1020.2mb 60f 66f
8:00am 4.5ft 8s 7 9 mph 1020.1mb 59f 66f
7:00am 4.5ft 8s 7 9 mph 1019.6mb 59f 66f
6:00am 4.5ft 8s 9 11 mph 1019.1mb 60f 66f
5:00am 4.5ft 9s 11 13 mph 1018.8mb 60f 66f
4:00am 5ft 15s 11 13 mph 1018.6mb 60f 66f
3:00am 5ft 8s 11 13 mph 1018.8mb 60f 66f
2:00am 5ft 8s 13 16 mph 1018.9mb 60f 66f
1:00am 5ft 8s 13 13 mph 1019mb 60f 66f
12:00am 5ft 8s 13 16 mph 1019mb 60f 66f
Sun 08/20 11:00pm 5ft 8s 13 16 mph 1018.9mb 60f 66f
10:00pm 5ft 8s 13 16 mph 1019.2mb 60f 66f
9:00pm 5ft 10s 11 13 mph 1019.1mb 60f 66f
8:00pm 5ft 8s 9 11 mph 1019.3mb 60f 66f
7:00pm 5ft 8s 7 9 mph 1019.8mb 60f 66f
6:00pm 5ft 8s 7 9 mph 1019.7mb 60f 66f
5:00pm 5ft 9s 9 9 mph 1019.4mb 60f 66f
4:00pm 5ft 10s 7 9 mph 1019.6mb 60f 66f
3:00pm 5.5ft 8s 9 9 mph 1019.7mb 60f 66f
2:00pm 5.5ft 16s 9 9 mph 1019.4mb 60f 67f
1:00pm 5.5ft 7s 9 9 mph 1018.9mb 60f 66f
12:00pm 6ft 9s 9 13 mph 1018.8mb 60f 67f
11:00am 6ft 7s 9 13 mph 1018.7mb 59f 66f
10:00am 6ft 7s 13 16 mph 1018.5mb 59f 66f
9:00am 6ft 10s 11 16 mph 1018.6mb 59f 66f
8:00am 6ft 9s 13 18 mph 1018.4mb 60f 67f
7:00am 6ft 11s 13 18 mph 1018.3mb 60f 66f
6:00am 6ft 10s 16 18 mph 1018.2mb 60f 66f
5:00am 6ft 7s 18 20 mph 1018.5mb 59f 66f
4:00am 6ft 10s 16 20 mph 1018.7mb 59f 66f
3:00am 6ft 10s 16 18 mph 1018.9mb 59f 66f
2:00am 6ft 10s 13 18 mph 1019.3mb 59f 66f
1:00am 5.5ft 10s 16 18 mph 1019.4mb 59f 67f
12:00am 6ft 8s 16 18 mph 1019.8mb 59f 67f
Sat 08/19 11:00pm 6ft 10s 18 20 mph 1019.8mb 59f 66f
10:00pm 6ft 10s 18 25 mph 1020mb 59f 67f
9:00pm 5.5ft 9s 16 18 mph 1020.5mb 59f 65f
8:00pm 5.5ft 10s 20 22 mph 1020.8mb 60f 64f
7:00pm 6ft 9s 16 20 mph 1021.7mb 60f 64f
6:00pm 6ft 9s 11 13 mph 1022.8mb 60f 64f
5:00pm 6ft 10s 16 18 mph 1023.3mb 60f 64f
4:00pm 5.5ft 10s 9 13 mph 1024mb 60f 66f
3:00pm 6.5ft 10s 9 11 mph 1024.3mb 60f 66f
2:00pm 7ft 9s 9 11 mph 1024.6mb 60f 66f
1:00pm 6.5ft 9s 9 13 mph 1024.6mb 60f 66f
12:00pm 6.5ft 9s 9 11 mph 1024.6mb 59f 66f
11:00am 7ft 9s 9 11 mph 1024.5mb 59f 66f
10:00am 7ft 9s 9 13 mph 1024.3mb 59f 66f
9:00am 6ft 8s 9 13 mph 1024.6mb 59f 66f
8:00am 7ft 9s 9 13 mph 1024.4mb 59f 65f
7:00am 6ft 10s 11 13 mph 1024.1mb 59f 65f
6:00am 6ft 10s 13 18 mph 1024mb 59f 65f
5:00am 6ft 9s 11 16 mph 1024mb 59f 65f
4:00am 6ft 10s 7 11 mph 1024.1mb 59f 65f
3:00am 6.5ft 8s 13 20 mph 1024.1mb 60f 64f
2:00am 6.5ft 8s 11 16 mph 1023.9mb 60f 66f
1:00am 7ft 8s 11 16 mph 1023.9mb 60f 65f
12:00am 6.5ft 9s 13 18 mph 1023.6mb 59f 65f
Fri 08/18 11:00pm 7ft 8s 13 16 mph 1023.5mb 60f 65f
10:00pm 6.5ft 8s 13 16 mph 1023.5mb 60f 65f
9:00pm 7ft 8s 11 13 mph 1023.2mb 60f 65f
8:00pm 7ft 8s 13 18 mph 1023.1mb 60f 66f
6:00pm 6ft 8s 13 18 mph 1023.4mb 60f 66f
5:00pm 6ft 9s 16 18 mph 1023.3mb 60f 67f
4:00pm 6ft 7s 13 18 mph 1023.4mb 59f 66f
3:00pm 6.5ft 8s 16 18 mph 1023.3mb 59f 66f
2:00pm 6.5ft 11s 16 20 mph 1022.9mb 59f 66f
1:00pm 6.5ft 8s 11 16 mph 1022.8mb 59f 65f
12:00pm 7ft 8s 16 20 mph 1022.3mb 59f 66f
11:00am 7ft 9s 13 18 mph 1021.9mb 59f 66f
10:00am 6.5ft 10s 16 18 mph 1021.3mb 59f 65f
9:00am 6ft 9s 13 18 mph 1021.1mb 59f 65f
8:00am 7ft 8s 18 20 mph 1020.6mb 59f 65f
7:00am 6.5ft 11s 13 18 mph 1020.2mb 59f 65f
6:00am 7ft 9s 16 18 mph 1019.4mb 59f 65f